sensor_id;sensor_type;location;lat;lon;timestamp;temperature;humidity
69679;DHT22;56915;52.046;4.854;2022-12-10T00:01:18;0.00;99.90
69679;DHT22;56915;52.046;4.854;2022-12-10T00:03:45;0.00;99.90
69679;DHT22;56915;52.046;4.854;2022-12-10T00:06:21;0.00;99.90
69679;DHT22;56915;52.046;4.854;2022-12-10T00:08:48;0.00;99.90
69679;DHT22;56915;52.046;4.854;2022-12-10T00:11:17;0.00;99.90
69679;DHT22;56915;52.046;4.854;2022-12-10T00:13:45;0.00;99.90
69679;DHT22;56915;52.046;4.854;2022-12-10T00:16:13;0.10;99.90
69679;DHT22;56915;52.046;4.854;2022-12-10T00:18:40;0.10;99.90
69679;DHT22;56915;52.046;4.854;2022-12-10T00:21:10;0.10;99.90
69679;DHT22;56915;52.046;4.854;2022-12-10T00:23:38;0.20;99.90
69679;DHT22;56915;52.046;4.854;2022-12-10T00:26:10;0.20;99.90
69679;DHT22;56915;52.046;4.854;2022-12-10T00:28:38;0.20;99.90
69679;DHT22;56915;52.046;4.854;2022-12-10T00:31:07;0.20;99.90
69679;DHT22;56915;52.046;4.854;2022-12-10T00:33:35;0.20;99.90
69679;DHT22;56915;52.046;4.854;2022-12-10T00:36:08;0.20;99.90
69679;DHT22;56915;52.046;4.854;2022-12-10T00:38:36;0.30;99.90
69679;DHT22;56915;52.046;4.854;2022-12-10T00:41:03;0.30;99.90
69679;DHT22;56915;52.046;4.854;2022-12-10T00:43:30;0.40;99.90
69679;DHT22;56915;52.046;4.854;2022-12-10T00:45:57;0.40;99.90
69679;DHT22;56915;52.046;4.854;2022-12-10T00:48:24;0.40;99.90
69679;DHT22;56915;52.046;4.854;2022-12-10T00:51:12;0.40;99.90
69679;DHT22;56915;52.046;4.854;2022-12-10T00:53:41;0.40;99.90
69679;DHT22;56915;52.046;4.854;2022-12-10T00:56:09;0.50;99.90
69679;DHT22;56915;52.046;4.854;2022-12-10T00:58:37;0.50;99.90
69679;DHT22;56915;52.046;4.854;2022-12-10T01:01:12;0.50;99.90
69679;DHT22;56915;52.046;4.854;2022-12-10T01:03:39;0.50;99.90
69679;DHT22;56915;52.046;4.854;2022-12-10T01:06:21;0.60;99.90
69679;DHT22;56915;52.046;4.854;2022-12-10T01:08:49;0.60;99.90
69679;DHT22;56915;52.046;4.854;2022-12-10T01:11:18;0.60;99.90
69679;DHT22;56915;52.046;4.854;2022-12-10T01:13:47;0.60;99.90
69679;DHT22;56915;52.046;4.854;2022-12-10T01:16:16;0.60;99.90
69679;DHT22;56915;52.046;4.854;2022-12-10T01:18:43;0.60;99.90
69679;DHT22;56915;52.046;4.854;2022-12-10T01:21:13;0.50;99.90
69679;DHT22;56915;52.046;4.854;2022-12-10T01:23:42;0.60;99.90
69679;DHT22;56915;52.046;4.854;2022-12-10T01:26:12;0.50;99.90
69679;DHT22;56915;52.046;4.854;2022-12-10T01:28:39;0.60;99.90
69679;DHT22;56915;52.046;4.854;2022-12-10T01:31:12;0.50;99.90
69679;DHT22;56915;52.046;4.854;2022-12-10T01:33:39;0.50;99.90
69679;DHT22;56915;52.046;4.854;2022-12-10T01:36:12;0.40;99.90
69679;DHT22;56915;52.046;4.854;2022-12-10T01:38:40;0.40;99.90
69679;DHT22;56915;52.046;4.854;2022-12-10T01:41:10;0.30;99.90
69679;DHT22;56915;52.046;4.854;2022-12-10T01:46:32;0.30;99.90
69679;DHT22;56915;52.046;4.854;2022-12-10T01:49:03;0.30;99.90
69679;DHT22;56915;52.046;4.854;2022-12-10T01:51:32;0.30;99.90
69679;DHT22;56915;52.046;4.854;2022-12-10T01:54:01;0.30;99.90
69679;DHT22;56915;52.046;4.854;2022-12-10T01:56:28;0.40;99.90
69679;DHT22;56915;52.046;4.854;2022-12-10T01:58:56;0.40;99.90
69679;DHT22;56915;52.046;4.854;2022-12-10T02:04:32;0.40;99.90
69679;DHT22;56915;52.046;4.854;2022-12-10T02:07:13;0.40;99.90
69679;DHT22;56915;52.046;4.854;2022-12-10T02:09:43;0.50;99.90
69679;DHT22;56915;52.046;4.854;2022-12-10T02:14:56;0.40;99.90
69679;DHT22;56915;52.046;4.854;2022-12-10T02:17:37;0.50;99.90
69679;DHT22;56915;52.046;4.854;2022-12-10T02:22:56;0.40;99.90
69679;DHT22;56915;52.046;4.854;2022-12-10T02:31:00;0.40;99.90
69679;DHT22;56915;52.046;4.854;2022-12-10T02:33:27;0.40;99.90
69679;DHT22;56915;52.046;4.854;2022-12-10T02:35:57;0.40;99.90
69679;DHT22;56915;52.046;4.854;2022-12-10T02:38:32;0.40;99.90
69679;DHT22;56915;52.046;4.854;2022-12-10T02:41:14;0.40;99.90
69679;DHT22;56915;52.046;4.854;2022-12-10T02:43:44;0.30;99.90
69679;DHT22;56915;52.046;4.854;2022-12-10T02:46:12;0.30;99.90
69679;DHT22;56915;52.046;4.854;2022-12-10T02:48:39;0.30;99.90
69679;DHT22;56915;52.046;4.854;2022-12-10T02:51:07;0.40;99.90
69679;DHT22;56915;52.046;4.854;2022-12-10T02:53:33;0.40;99.90
69679;DHT22;56915;52.046;4.854;2022-12-10T02:56:19;0.30;99.90
69679;DHT22;56915;52.046;4.854;2022-12-10T03:07:27;0.20;99.90
69679;DHT22;56915;52.046;4.854;2022-12-10T03:10:02;0.20;99.90
69679;DHT22;56915;52.046;4.854;2022-12-10T03:12:39;0.20;99.90
69679;DHT22;56915;52.046;4.854;2022-12-10T03:15:09;0.20;99.90
69679;DHT22;56915;52.046;4.854;2022-12-10T03:17:39;0.20;99.90
69679;DHT22;56915;52.046;4.854;2022-12-10T03:20:10;0.30;99.90
69679;DHT22;56915;52.046;4.854;2022-12-10T03:22:41;0.30;99.90
69679;DHT22;56915;52.046;4.854;2022-12-10T03:25:11;0.30;99.90
69679;DHT22;56915;52.046;4.854;2022-12-10T03:27:41;0.40;99.90
69679;DHT22;56915;52.046;4.854;2022-12-10T03:30:08;0.40;99.90
69679;DHT22;56915;52.046;4.854;2022-12-10T03:32:35;0.40;99.90
69679;DHT22;56915;52.046;4.854;2022-12-10T03:35:04;0.40;99.90
69679;DHT22;56915;52.046;4.854;2022-12-10T03:37:33;0.40;99.90
69679;DHT22;56915;52.046;4.854;2022-12-10T03:40:01;0.40;99.90
69679;DHT22;56915;52.046;4.854;2022-12-10T03:42:28;0.40;99.90
69679;DHT22;56915;52.046;4.854;2022-12-10T03:44:55;0.40;99.90
69679;DHT22;56915;52.046;4.854;2022-12-10T03:47:22;0.40;99.90
69679;DHT22;56915;52.046;4.854;2022-12-10T03:49:49;0.40;99.90
69679;DHT22;56915;52.046;4.854;2022-12-10T03:52:16;0.40;99.90
69679;DHT22;56915;52.046;4.854;2022-12-10T03:54:43;0.40;99.90
69679;DHT22;56915;52.046;4.854;2022-12-10T03:57:10;0.40;99.90
69679;DHT22;56915;52.046;4.854;2022-12-10T03:59:36;0.50;99.90
69679;DHT22;56915;52.046;4.854;2022-12-10T04:02:03;0.50;99.90
69679;DHT22;56915;52.046;4.854;2022-12-10T04:04:30;0.40;99.90
69679;DHT22;56915;52.046;4.854;2022-12-10T04:06:57;0.40;99.90
69679;DHT22;56915;52.046;4.854;2022-12-10T04:09:24;0.30;99.90
69679;DHT22;56915;52.046;4.854;2022-12-10T04:11:55;0.30;99.90
69679;DHT22;56915;52.046;4.854;2022-12-10T04:14:23;0.30;99.90
69679;DHT22;56915;52.046;4.854;2022-12-10T04:17:08;0.30;99.90
69679;DHT22;56915;52.046;4.854;2022-12-10T04:19:35;0.30;99.90
69679;DHT22;56915;52.046;4.854;2022-12-10T04:22:03;0.30;99.90
69679;DHT22;56915;52.046;4.854;2022-12-10T04:24:48;0.30;99.90
69679;DHT22;56915;52.046;4.854;2022-12-10T04:27:38;0.30;99.90
69679;DHT22;56915;52.046;4.854;2022-12-10T04:30:08;0.30;99.90
69679;DHT22;56915;52.046;4.854;2022-12-10T04:32:37;0.30;99.90
69679;DHT22;56915;52.046;4.854;2022-12-10T04:35:04;0.30;99.90
69679;DHT22;56915;52.046;4.854;2022-12-10T04:37:31;0.30;99.90
69679;DHT22;56915;52.046;4.854;2022-12-10T04:39:58;0.30;99.90
69679;DHT22;56915;52.046;4.854;2022-12-10T04:42:25;0.30;99.90
69679;DHT22;56915;52.046;4.854;2022-12-10T04:44:51;0.30;99.90
69679;DHT22;56915;52.046;4.854;2022-12-10T04:47:18;0.40;99.90
69679;DHT22;56915;52.046;4.854;2022-12-10T04:49:45;0.40;99.90
69679;DHT22;56915;52.046;4.854;2022-12-10T04:52:14;0.40;99.90
69679;DHT22;56915;52.046;4.854;2022-12-10T04:54:42;0.40;99.90
69679;DHT22;56915;52.046;4.854;2022-12-10T04:57:10;0.40;99.90
69679;DHT22;56915;52.046;4.854;2022-12-10T04:59:37;0.40;99.90
69679;DHT22;56915;52.046;4.854;2022-12-10T05:02:05;0.40;99.90
69679;DHT22;56915;52.046;4.854;2022-12-10T05:04:32;0.40;99.90
69679;DHT22;56915;52.046;4.854;2022-12-10T05:06:59;0.40;99.90
69679;DHT22;56915;52.046;4.854;2022-12-10T05:09:26;0.40;99.90
69679;DHT22;56915;52.046;4.854;2022-12-10T05:11:53;0.40;99.90
69679;DHT22;56915;52.046;4.854;2022-12-10T05:14:20;0.40;99.90
69679;DHT22;56915;52.046;4.854;2022-12-10T05:16:50;0.40;99.90
69679;DHT22;56915;52.046;4.854;2022-12-10T05:19:17;0.40;99.90
69679;DHT22;56915;52.046;4.854;2022-12-10T05:21:46;0.40;99.90
69679;DHT22;56915;52.046;4.854;2022-12-10T05:24:32;0.40;99.90
69679;DHT22;56915;52.046;4.854;2022-12-10T05:26:58;0.40;99.90
69679;DHT22;56915;52.046;4.854;2022-12-10T05:29:25;0.40;99.90
69679;DHT22;56915;52.046;4.854;2022-12-10T05:31:52;0.40;99.90
69679;DHT22;56915;52.046;4.854;2022-12-10T05:34:19;0.40;99.90
69679;DHT22;56915;52.046;4.854;2022-12-10T05:36:46;0.40;99.90
69679;DHT22;56915;52.046;4.854;2022-12-10T05:39:13;0.40;99.90
69679;DHT22;56915;52.046;4.854;2022-12-10T05:41:40;0.40;99.90
69679;DHT22;56915;52.046;4.854;2022-12-10T05:44:08;0.40;99.90
69679;DHT22;56915;52.046;4.854;2022-12-10T05:46:35;0.40;99.90
69679;DHT22;56915;52.046;4.854;2022-12-10T05:49:03;0.40;99.90
69679;DHT22;56915;52.046;4.854;2022-12-10T05:51:33;0.40;99.90
69679;DHT22;56915;52.046;4.854;2022-12-10T05:54:01;0.50;99.90
69679;DHT22;56915;52.046;4.854;2022-12-10T05:56:31;0.50;99.90
69679;DHT22;56915;52.046;4.854;2022-12-10T05:59:00;0.50;99.90
69679;DHT22;56915;52.046;4.854;2022-12-10T06:01:30;0.50;99.90
69679;DHT22;56915;52.046;4.854;2022-12-10T06:04:02;0.50;99.90
69679;DHT22;56915;52.046;4.854;2022-12-10T06:06:32;0.50;99.90
69679;DHT22;56915;52.046;4.854;2022-12-10T06:08:59;0.40;99.90
69679;DHT22;56915;52.046;4.854;2022-12-10T06:11:28;0.40;99.90
69679;DHT22;56915;52.046;4.854;2022-12-10T06:13:57;0.40;99.90
69679;DHT22;56915;52.046;4.854;2022-12-10T06:16:25;0.40;99.90
69679;DHT22;56915;52.046;4.854;2022-12-10T06:18:52;0.40;99.90
69679;DHT22;56915;52.046;4.854;2022-12-10T06:21:20;0.40;99.90
69679;DHT22;56915;52.046;4.854;2022-12-10T06:23:47;0.40;99.90
69679;DHT22;56915;52.046;4.854;2022-12-10T06:26:17;0.40;99.90
69679;DHT22;56915;52.046;4.854;2022-12-10T06:28:46;0.40;99.90
69679;DHT22;56915;52.046;4.854;2022-12-10T06:31:14;0.40;99.90
69679;DHT22;56915;52.046;4.854;2022-12-10T06:33:42;0.40;99.90
69679;DHT22;56915;52.046;4.854;2022-12-10T06:36:11;0.40;99.90
69679;DHT22;56915;52.046;4.854;2022-12-10T06:38:38;0.40;99.90
69679;DHT22;56915;52.046;4.854;2022-12-10T06:41:06;0.40;99.90
69679;DHT22;56915;52.046;4.854;2022-12-10T06:43:34;0.40;99.90
69679;DHT22;56915;52.046;4.854;2022-12-10T06:46:07;0.40;99.90
69679;DHT22;56915;52.046;4.854;2022-12-10T06:48:35;0.40;99.90
69679;DHT22;56915;52.046;4.854;2022-12-10T06:51:03;0.40;99.90
69679;DHT22;56915;52.046;4.854;2022-12-10T06:53:32;0.40;99.90
69679;DHT22;56915;52.046;4.854;2022-12-10T06:56:01;0.40;99.90
69679;DHT22;56915;52.046;4.854;2022-12-10T06:58:28;0.40;99.90
69679;DHT22;56915;52.046;4.854;2022-12-10T07:01:06;0.40;99.90
69679;DHT22;56915;52.046;4.854;2022-12-10T07:03:34;0.40;99.90
69679;DHT22;56915;52.046;4.854;2022-12-10T07:06:01;0.40;99.90
69679;DHT22;56915;52.046;4.854;2022-12-10T07:08:28;0.40;99.90
69679;DHT22;56915;52.046;4.854;2022-12-10T07:10:56;0.40;99.90
69679;DHT22;56915;52.046;4.854;2022-12-10T07:13:23;0.40;99.90
69679;DHT22;56915;52.046;4.854;2022-12-10T07:15:56;0.40;99.90
69679;DHT22;56915;52.046;4.854;2022-12-10T07:18:23;0.40;99.90
69679;DHT22;56915;52.046;4.854;2022-12-10T07:20:50;0.40;99.90
69679;DHT22;56915;52.046;4.854;2022-12-10T07:23:17;0.40;99.90
69679;DHT22;56915;52.046;4.854;2022-12-10T07:25:44;0.50;99.90
69679;DHT22;56915;52.046;4.854;2022-12-10T07:28:11;0.50;99.90
69679;DHT22;56915;52.046;4.854;2022-12-10T07:30:38;0.50;99.90
69679;DHT22;56915;52.046;4.854;2022-12-10T07:33:05;0.50;99.90
69679;DHT22;56915;52.046;4.854;2022-12-10T07:35:31;0.50;99.90
69679;DHT22;56915;52.046;4.854;2022-12-10T07:37:58;0.50;99.90
69679;DHT22;56915;52.046;4.854;2022-12-10T07:40:25;0.50;99.90
69679;DHT22;56915;52.046;4.854;2022-12-10T07:42:51;0.50;99.90
69679;DHT22;56915;52.046;4.854;2022-12-10T07:45:18;0.50;99.90
69679;DHT22;56915;52.046;4.854;2022-12-10T07:47:45;0.50;99.90
69679;DHT22;56915;52.046;4.854;2022-12-10T07:50:12;0.50;99.90
69679;DHT22;56915;52.046;4.854;2022-12-10T07:52:38;0.50;99.90
69679;DHT22;56915;52.046;4.854;2022-12-10T07:55:05;0.50;99.90
69679;DHT22;56915;52.046;4.854;2022-12-10T07:57:32;0.50;99.90
69679;DHT22;56915;52.046;4.854;2022-12-10T07:59:59;0.50;99.90
69679;DHT22;56915;52.046;4.854;2022-12-10T08:02:26;0.50;99.90
69679;DHT22;56915;52.046;4.854;2022-12-10T08:04:52;0.50;99.90
69679;DHT22;56915;52.046;4.854;2022-12-10T08:07:19;0.40;99.90
69679;DHT22;56915;52.046;4.854;2022-12-10T08:09:46;0.50;99.90
69679;DHT22;56915;52.046;4.854;2022-12-10T08:12:13;0.50;99.90
69679;DHT22;56915;52.046;4.854;2022-12-10T08:14:39;0.50;99.90
69679;DHT22;56915;52.046;4.854;2022-12-10T08:17:06;0.50;99.90
69679;DHT22;56915;52.046;4.854;2022-12-10T08:19:33;0.50;99.90
69679;DHT22;56915;52.046;4.854;2022-12-10T08:22:00;0.50;99.90
69679;DHT22;56915;52.046;4.854;2022-12-10T08:24:26;0.50;99.90
69679;DHT22;56915;52.046;4.854;2022-12-10T08:26:53;0.60;99.90
69679;DHT22;56915;52.046;4.854;2022-12-10T08:29:20;0.60;99.90
69679;DHT22;56915;52.046;4.854;2022-12-10T08:31:47;0.60;99.90
69679;DHT22;56915;52.046;4.854;2022-12-10T08:34:16;0.60;99.90
69679;DHT22;56915;52.046;4.854;2022-12-10T08:36:44;0.60;99.90
69679;DHT22;56915;52.046;4.854;2022-12-10T08:39:12;0.60;99.90
69679;DHT22;56915;52.046;4.854;2022-12-10T08:41:43;0.70;99.90
69679;DHT22;56915;52.046;4.854;2022-12-10T08:44:11;0.70;99.90
69679;DHT22;56915;52.046;4.854;2022-12-10T08:46:39;0.70;99.90
69679;DHT22;56915;52.046;4.854;2022-12-10T08:49:06;0.70;99.90
69679;DHT22;56915;52.046;4.854;2022-12-10T08:51:33;0.70;99.90
69679;DHT22;56915;52.046;4.854;2022-12-10T08:54:00;0.70;99.90
69679;DHT22;56915;52.046;4.854;2022-12-10T08:56:27;0.80;99.90
69679;DHT22;56915;52.046;4.854;2022-12-10T08:58:54;0.80;99.90
69679;DHT22;56915;52.046;4.854;2022-12-10T09:01:22;0.80;99.90
69679;DHT22;56915;52.046;4.854;2022-12-10T09:03:49;0.80;99.90
69679;DHT22;56915;52.046;4.854;2022-12-10T09:06:19;0.80;99.90
69679;DHT22;56915;52.046;4.854;2022-12-10T09:08:46;0.80;99.90
69679;DHT22;56915;52.046;4.854;2022-12-10T09:13:48;0.80;99.90
69679;DHT22;56915;52.046;4.854;2022-12-10T09:16:14;0.80;99.90
69679;DHT22;56915;52.046;4.854;2022-12-10T09:18:41;0.90;99.90
69679;DHT22;56915;52.046;4.854;2022-12-10T09:21:14;0.90;99.90
69679;DHT22;56915;52.046;4.854;2022-12-10T09:23:43;0.90;99.90
69679;DHT22;56915;52.046;4.854;2022-12-10T09:26:12;0.90;99.90
69679;DHT22;56915;52.046;4.854;2022-12-10T09:28:40;0.90;99.90
69679;DHT22;56915;52.046;4.854;2022-12-10T09:31:08;1.00;99.90
69679;DHT22;56915;52.046;4.854;2022-12-10T09:33:44;1.00;99.90
69679;DHT22;56915;52.046;4.854;2022-12-10T09:36:13;1.00;99.90
69679;DHT22;56915;52.046;4.854;2022-12-10T09:38:42;1.10;99.90
69679;DHT22;56915;52.046;4.854;2022-12-10T09:47:09;1.10;99.90
69679;DHT22;56915;52.046;4.854;2022-12-10T09:49:49;1.10;99.90
69679;DHT22;56915;52.046;4.854;2022-12-10T09:52:20;1.10;99.90
69679;DHT22;56915;52.046;4.854;2022-12-10T09:54:59;1.20;99.90
69679;DHT22;56915;52.046;4.854;2022-12-10T09:57:37;1.10;99.90
69679;DHT22;56915;52.046;4.854;2022-12-10T10:00:21;1.10;99.90
69679;DHT22;56915;52.046;4.854;2022-12-10T10:02:50;1.10;99.90
69679;DHT22;56915;52.046;4.854;2022-12-10T10:05:26;1.10;99.90
69679;DHT22;56915;52.046;4.854;2022-12-10T10:07:57;1.10;99.90
69679;DHT22;56915;52.046;4.854;2022-12-10T10:10:32;1.20;99.90
69679;DHT22;56915;52.046;4.854;2022-12-10T10:15:49;1.30;99.90
69679;DHT22;56915;52.046;4.854;2022-12-10T10:18:39;1.30;99.90
69679;DHT22;56915;52.046;4.854;2022-12-10T10:21:17;1.30;99.90
69679;DHT22;56915;52.046;4.854;2022-12-10T10:23:45;1.30;99.90
69679;DHT22;56915;52.046;4.854;2022-12-10T10:26:12;1.30;99.90
69679;DHT22;56915;52.046;4.854;2022-12-10T10:28:41;1.40;99.90
69679;DHT22;56915;52.046;4.854;2022-12-10T10:31:30;1.50;99.90
69679;DHT22;56915;52.046;4.854;2022-12-10T10:34:03;1.50;99.90
69679;DHT22;56915;52.046;4.854;2022-12-10T10:36:33;1.50;99.90
69679;DHT22;56915;52.046;4.854;2022-12-10T10:39:28;1.50;99.90
69679;DHT22;56915;52.046;4.854;2022-12-10T10:41:57;1.50;99.90
69679;DHT22;56915;52.046;4.854;2022-12-10T10:44:34;1.50;99.90
69679;DHT22;56915;52.046;4.854;2022-12-10T10:47:02;1.50;99.90
69679;DHT22;56915;52.046;4.854;2022-12-10T10:49:31;1.60;99.90
69679;DHT22;56915;52.046;4.854;2022-12-10T10:52:12;1.60;99.90
69679;DHT22;56915;52.046;4.854;2022-12-10T10:54:44;1.60;99.90
69679;DHT22;56915;52.046;4.854;2022-12-10T10:57:21;1.70;99.90
69679;DHT22;56915;52.046;4.854;2022-12-10T10:59:54;1.70;99.90
69679;DHT22;56915;52.046;4.854;2022-12-10T11:02:27;1.70;99.90
69679;DHT22;56915;52.046;4.854;2022-12-10T11:04:57;1.70;99.90
69679;DHT22;56915;52.046;4.854;2022-12-10T11:09:56;1.70;99.90
69679;DHT22;56915;52.046;4.854;2022-12-10T11:12:39;1.60;99.90
69679;DHT22;56915;52.046;4.854;2022-12-10T11:17:56;1.70;99.90
69679;DHT22;56915;52.046;4.854;2022-12-10T11:20:33;1.70;99.90
69679;DHT22;56915;52.046;4.854;2022-12-10T11:23:09;1.70;99.90
69679;DHT22;56915;52.046;4.854;2022-12-10T11:26:02;1.70;99.90
69679;DHT22;56915;52.046;4.854;2022-12-10T11:34:03;1.70;99.90
69679;DHT22;56915;52.046;4.854;2022-12-10T11:36:45;1.70;99.90
69679;DHT22;56915;52.046;4.854;2022-12-10T11:39:44;1.70;99.90
69679;DHT22;56915;52.046;4.854;2022-12-10T11:47:35;1.80;99.90
69679;DHT22;56915;52.046;4.854;2022-12-10T11:50:20;1.70;99.90
69679;DHT22;56915;52.046;4.854;2022-12-10T11:53:35;1.70;99.90
69679;DHT22;56915;52.046;4.854;2022-12-10T11:55:53;1.70;99.90
69679;DHT22;56915;52.046;4.854;2022-12-10T12:04:27;1.60;99.90
69679;DHT22;56915;52.046;4.854;2022-12-10T12:07:04;1.60;99.90
69679;DHT22;56915;52.046;4.854;2022-12-10T12:15:02;1.40;99.90
69679;DHT22;56915;52.046;4.854;2022-12-10T12:17:36;1.40;99.90
69679;DHT22;56915;52.046;4.854;2022-12-10T12:22:50;1.40;99.90
69679;DHT22;56915;52.046;4.854;2022-12-10T12:25:30;1.50;99.90
69679;DHT22;56915;52.046;4.854;2022-12-10T12:28:11;1.60;99.90
69679;DHT22;56915;52.046;4.854;2022-12-10T12:30:44;1.70;99.90
69679;DHT22;56915;52.046;4.854;2022-12-10T12:33:13;1.70;99.90
69679;DHT22;56915;52.046;4.854;2022-12-10T12:35:55;1.70;99.90
69679;DHT22;56915;52.046;4.854;2022-12-10T12:38:35;1.80;99.90
69679;DHT22;56915;52.046;4.854;2022-12-10T12:41:05;1.80;99.90
69679;DHT22;56915;52.046;4.854;2022-12-10T12:46:11;1.80;99.90
69679;DHT22;56915;52.046;4.854;2022-12-10T12:49:03;1.80;99.90
69679;DHT22;56915;52.046;4.854;2022-12-10T12:51:40;1.90;99.90
69679;DHT22;56915;52.046;4.854;2022-12-10T12:54:12;1.90;99.90
69679;DHT22;56915;52.046;4.854;2022-12-10T13:04:51;1.90;99.90
69679;DHT22;56915;52.046;4.854;2022-12-10T13:15:33;1.90;99.90
69679;DHT22;56915;52.046;4.854;2022-12-10T13:23:34;1.80;99.90
69679;DHT22;56915;52.046;4.854;2022-12-10T13:28:52;1.70;99.90
69679;DHT22;56915;52.046;4.854;2022-12-10T13:36:37;1.60;99.90
69679;DHT22;56915;52.046;4.854;2022-12-10T13:39:33;1.70;99.90
69679;DHT22;56915;52.046;4.854;2022-12-10T13:45:02;1.70;99.90
69679;DHT22;56915;52.046;4.854;2022-12-10T13:50:51;1.70;99.90
69679;DHT22;56915;52.046;4.854;2022-12-10T13:53:14;1.70;99.90
69679;DHT22;56915;52.046;4.854;2022-12-10T13:56:05;1.70;99.90
69679;DHT22;56915;52.046;4.854;2022-12-10T13:59:05;1.60;99.90
69679;DHT22;56915;52.046;4.854;2022-12-10T14:01:48;1.60;99.90
69679;DHT22;56915;52.046;4.854;2022-12-10T14:07:14;1.60;99.90
69679;DHT22;56915;52.046;4.854;2022-12-10T14:09:49;1.60;99.90
69679;DHT22;56915;52.046;4.854;2022-12-10T14:12:24;1.60;99.90
69679;DHT22;56915;52.046;4.854;2022-12-10T14:14:55;1.60;99.90
69679;DHT22;56915;52.046;4.854;2022-12-10T14:17:29;1.60;99.90
69679;DHT22;56915;52.046;4.854;2022-12-10T14:19:59;1.60;99.90
69679;DHT22;56915;52.046;4.854;2022-12-10T14:22:39;1.60;99.90
69679;DHT22;56915;52.046;4.854;2022-12-10T14:25:14;1.60;99.90
69679;DHT22;56915;52.046;4.854;2022-12-10T14:27:41;1.60;99.90
69679;DHT22;56915;52.046;4.854;2022-12-10T14:30:20;1.60;99.90
69679;DHT22;56915;52.046;4.854;2022-12-10T14:32:49;1.60;99.90
69679;DHT22;56915;52.046;4.854;2022-12-10T14:35:21;1.60;99.90
69679;DHT22;56915;52.046;4.854;2022-12-10T14:37:52;1.60;99.90
69679;DHT22;56915;52.046;4.854;2022-12-10T14:40:25;1.60;99.90
69679;DHT22;56915;52.046;4.854;2022-12-10T14:43:04;1.60;99.90
69679;DHT22;56915;52.046;4.854;2022-12-10T14:45:45;1.60;99.90
69679;DHT22;56915;52.046;4.854;2022-12-10T14:48:14;1.50;99.90
69679;DHT22;56915;52.046;4.854;2022-12-10T14:50:46;1.50;99.90
69679;DHT22;56915;52.046;4.854;2022-12-10T14:53:16;1.50;99.90
69679;DHT22;56915;52.046;4.854;2022-12-10T14:55:49;1.50;99.90
69679;DHT22;56915;52.046;4.854;2022-12-10T14:58:45;1.40;99.90
69679;DHT22;56915;52.046;4.854;2022-12-10T15:01:24;1.50;99.90
69679;DHT22;56915;52.046;4.854;2022-12-10T15:03:53;1.50;99.90
69679;DHT22;56915;52.046;4.854;2022-12-10T15:06:20;1.50;99.90
69679;DHT22;56915;52.046;4.854;2022-12-10T15:08:48;1.50;99.90
69679;DHT22;56915;52.046;4.854;2022-12-10T15:11:19;1.50;99.90
69679;DHT22;56915;52.046;4.854;2022-12-10T15:13:52;1.50;99.90
69679;DHT22;56915;52.046;4.854;2022-12-10T15:16:42;1.60;99.90
69679;DHT22;56915;52.046;4.854;2022-12-10T15:24:42;1.60;99.90
69679;DHT22;56915;52.046;4.854;2022-12-10T15:27:20;1.60;99.90
69679;DHT22;56915;52.046;4.854;2022-12-10T15:29:49;1.50;99.90
69679;DHT22;56915;52.046;4.854;2022-12-10T15:32:28;1.50;99.90
69679;DHT22;56915;52.046;4.854;2022-12-10T15:34:59;1.50;99.90
69679;DHT22;56915;52.046;4.854;2022-12-10T15:37:31;1.50;99.90
69679;DHT22;56915;52.046;4.854;2022-12-10T15:40:00;1.50;99.90
69679;DHT22;56915;52.046;4.854;2022-12-10T15:42:41;1.50;99.90
69679;DHT22;56915;52.046;4.854;2022-12-10T15:45:24;1.50;99.90
69679;DHT22;56915;52.046;4.854;2022-12-10T15:47:56;1.50;99.90
69679;DHT22;56915;52.046;4.854;2022-12-10T15:50:25;1.50;99.90
69679;DHT22;56915;52.046;4.854;2022-12-10T15:52:52;1.50;99.90
69679;DHT22;56915;52.046;4.854;2022-12-10T15:55:19;1.60;99.90
69679;DHT22;56915;52.046;4.854;2022-12-10T15:57:46;1.60;99.90
69679;DHT22;56915;52.046;4.854;2022-12-10T16:00:21;1.60;99.90
69679;DHT22;56915;52.046;4.854;2022-12-10T16:02:58;1.60;99.90
69679;DHT22;56915;52.046;4.854;2022-12-10T16:05:28;1.60;99.90
69679;DHT22;56915;52.046;4.854;2022-12-10T16:10:37;1.60;99.90
69679;DHT22;56915;52.046;4.854;2022-12-10T16:13:05;1.60;99.90
69679;DHT22;56915;52.046;4.854;2022-12-10T16:15:38;1.60;99.90
69679;DHT22;56915;52.046;4.854;2022-12-10T16:18:08;1.60;99.90
69679;DHT22;56915;52.046;4.854;2022-12-10T16:20:53;1.70;99.90
69679;DHT22;56915;52.046;4.854;2022-12-10T16:23:20;1.70;99.90
69679;DHT22;56915;52.046;4.854;2022-12-10T16:25:47;1.70;99.90
69679;DHT22;56915;52.046;4.854;2022-12-10T16:28:19;1.60;99.90
69679;DHT22;56915;52.046;4.854;2022-12-10T16:30:52;1.60;99.90
69679;DHT22;56915;52.046;4.854;2022-12-10T16:33:21;1.60;99.90
69679;DHT22;56915;52.046;4.854;2022-12-10T16:35:49;1.70;99.90
69679;DHT22;56915;52.046;4.854;2022-12-10T16:38:17;1.70;99.90
69679;DHT22;56915;52.046;4.854;2022-12-10T16:40:45;1.70;99.90
69679;DHT22;56915;52.046;4.854;2022-12-10T16:43:15;1.70;99.90
69679;DHT22;56915;52.046;4.854;2022-12-10T16:45:43;1.70;99.90
69679;DHT22;56915;52.046;4.854;2022-12-10T16:48:10;1.70;99.90
69679;DHT22;56915;52.046;4.854;2022-12-10T16:50:38;1.70;99.90
69679;DHT22;56915;52.046;4.854;2022-12-10T16:53:29;1.70;99.90
69679;DHT22;56915;52.046;4.854;2022-12-10T16:55:56;1.70;99.90
69679;DHT22;56915;52.046;4.854;2022-12-10T16:58:24;1.70;99.90
69679;DHT22;56915;52.046;4.854;2022-12-10T17:00:53;1.70;99.90
69679;DHT22;56915;52.046;4.854;2022-12-10T17:03:24;1.70;99.90
69679;DHT22;56915;52.046;4.854;2022-12-10T17:05:59;1.70;99.90
69679;DHT22;56915;52.046;4.854;2022-12-10T17:08:27;1.70;99.90
69679;DHT22;56915;52.046;4.854;2022-12-10T17:10:56;1.70;99.90
69679;DHT22;56915;52.046;4.854;2022-12-10T17:13:55;1.70;99.90
69679;DHT22;56915;52.046;4.854;2022-12-10T17:16:22;1.80;99.90
69679;DHT22;56915;52.046;4.854;2022-12-10T17:18:49;1.70;99.90
69679;DHT22;56915;52.046;4.854;2022-12-10T17:21:16;1.70;99.90
69679;DHT22;56915;52.046;4.854;2022-12-10T17:23:43;1.70;99.90
69679;DHT22;56915;52.046;4.854;2022-12-10T17:26:28;1.80;99.90
69679;DHT22;56915;52.046;4.854;2022-12-10T17:29:02;1.70;99.90
69679;DHT22;56915;52.046;4.854;2022-12-10T17:31:31;1.80;99.90
69679;DHT22;56915;52.046;4.854;2022-12-10T17:33:58;1.80;99.90
69679;DHT22;56915;52.046;4.854;2022-12-10T17:36:24;1.80;99.90
69679;DHT22;56915;52.046;4.854;2022-12-10T17:38:52;1.90;99.90
69679;DHT22;56915;52.046;4.854;2022-12-10T17:41:19;1.90;99.90
69679;DHT22;56915;52.046;4.854;2022-12-10T17:43:46;1.90;99.90
69679;DHT22;56915;52.046;4.854;2022-12-10T17:46:21;1.90;99.90
69679;DHT22;56915;52.046;4.854;2022-12-10T17:48:48;1.90;99.90
69679;DHT22;56915;52.046;4.854;2022-12-10T17:51:15;1.90;99.90
69679;DHT22;56915;52.046;4.854;2022-12-10T17:53:42;2.00;99.90
69679;DHT22;56915;52.046;4.854;2022-12-10T17:56:18;1.90;99.90
69679;DHT22;56915;52.046;4.854;2022-12-10T17:58:47;1.90;99.90
69679;DHT22;56915;52.046;4.854;2022-12-10T18:01:14;1.90;99.90
69679;DHT22;56915;52.046;4.854;2022-12-10T18:03:42;2.00;99.90
69679;DHT22;56915;52.046;4.854;2022-12-10T18:06:18;2.00;99.90